Time;durP1;ratioP1;P1;durP2;ratioP2;P2;SDS_P1;SDS_P2;PMS_P1;PMS_P2;Temp;Humidity;BMP_temperature;BMP_pressure;BME280_temperature;BME280_humidity;BME280_pressure;Samples;Min_cycle;Max_cycle;Signal;HPM_P1;HPM_P2
2021/08/09 00:01:54;;;;;;;3.88;1.50;;;;;;;;;;4861187;29;20057;-49
2021/08/09 00:04:22;;;;;;;2.55;1.58;;;;;;;;;;4860221;29;20057;-49
2021/08/09 00:06:48;;;;;;;3.78;1.65;;;;;;;;;;4861237;29;20080;-51
2021/08/09 00:09:15;;;;;;;2.78;1.50;;;;;;;;;;4861082;29;20076;-48
2021/08/09 00:11:42;;;;;;;3.75;1.50;;;;;;;;;;4860717;29;20048;-48
2021/08/09 00:14:09;;;;;;;3.70;1.40;;;;;;;;;;4878475;29;20131;-47
2021/08/09 00:16:36;;;;;;;3.63;1.48;;;;;;;;;;4871689;29;20415;-47
2021/08/09 00:19:03;;;;;;;5.60;1.80;;;;;;;;;;4861159;29;20075;-49
2021/08/09 00:21:29;;;;;;;4.25;1.45;;;;;;;;;;4860066;29;20097;-48
2021/08/09 00:23:56;;;;;;;2.95;1.70;;;;;;;;;;4859661;29;20058;-49
2021/08/09 00:26:23;;;;;;;2.65;1.55;;;;;;;;;;4860417;29;20112;-49
2021/08/09 00:28:50;;;;;;;3.28;1.30;;;;;;;;;;4874959;29;20144;-51
2021/08/09 00:31:17;;;;;;;1.80;1.38;;;;;;;;;;4860654;29;20121;-51
2021/08/09 00:33:44;;;;;;;2.50;1.75;;;;;;;;;;4859518;29;20038;-48
2021/08/09 00:36:11;;;;;;;4.93;1.65;;;;;;;;;;4858427;29;20049;-48
2021/08/09 00:38:42;;;;;;;2.40;1.45;;;;;;;;;;4859602;29;20060;-48
2021/08/09 00:41:09;;;;;;;4.25;1.60;;;;;;;;;;4859446;29;20052;-47
2021/08/09 00:43:36;;;;;;;2.90;1.40;;;;;;;;;;4859429;29;20041;-49
2021/08/09 00:46:04;;;;;;;2.60;1.55;;;;;;;;;;4857249;29;20456;-50
2021/08/09 00:48:35;;;;;;;4.50;1.52;;;;;;;;;;4859295;29;20351;-48
2021/08/09 00:51:06;;;;;;;3.55;1.58;;;;;;;;;;4859352;29;20042;-48
2021/08/09 00:53:33;;;;;;;2.53;1.50;;;;;;;;;;4859136;29;20045;-47
2021/08/09 00:56:02;;;;;;;3.10;1.60;;;;;;;;;;4858112;29;20049;-48
2021/08/09 00:58:32;;;;;;;3.83;1.60;;;;;;;;;;4859490;29;20454;-48
2021/08/09 01:01:00;;;;;;;6.43;2.17;;;;;;;;;;4859131;29;20057;-50
2021/08/09 01:03:28;;;;;;;3.67;1.45;;;;;;;;;;4858874;29;20048;-48
2021/08/09 01:05:55;;;;;;;3.00;1.80;;;;;;;;;;4871567;29;20053;-49
2021/08/09 01:08:38;;;;;;;3.60;1.48;;;;;;;;;;4858929;29;20042;-49
2021/08/09 01:11:12;;;;;;;4.65;1.80;;;;;;;;;;4858853;29;20044;-49
2021/08/09 01:13:50;;;;;;;3.80;1.80;;;;;;;;;;4873946;29;20038;-49
2021/08/09 01:16:22;;;;;;;3.83;1.80;;;;;;;;;;4857777;29;20044;-50
2021/08/09 01:18:49;;;;;;;2.25;1.40;;;;;;;;;;4859922;29;20401;-50
2021/08/09 01:21:17;;;;;;;3.08;1.50;;;;;;;;;;4858594;29;20140;-49
2021/08/09 01:24:03;;;;;;;3.08;1.70;;;;;;;;;;4858444;29;20045;-48
2021/08/09 01:26:37;;;;;;;3.38;1.63;;;;;;;;;;4859303;29;20389;-50
2021/08/09 01:29:06;;;;;;;2.90;1.58;;;;;;;;;;4858622;29;20411;-48
2021/08/09 01:31:37;;;;;;;7.13;1.70;;;;;;;;;;4859675;29;20054;-48
2021/08/09 01:34:06;;;;;;;2.35;1.35;;;;;;;;;;4842637;29;20078;-50
2021/08/09 01:36:34;;;;;;;3.05;2.17;;;;;;;;;;4858393;29;20123;-50
2021/08/09 01:39:02;;;;;;;3.55;1.50;;;;;;;;;;4858373;29;20132;-50
2021/08/09 01:41:30;;;;;;;5.95;1.70;;;;;;;;;;4858296;29;20569;-50
2021/08/09 01:43:58;;;;;;;5.10;1.67;;;;;;;;;;4858087;29;20257;-48
2021/08/09 01:46:25;;;;;;;3.85;1.83;;;;;;;;;;4857315;29;20076;-49
2021/08/09 01:48:55;;;;;;;2.88;1.65;;;;;;;;;;4858211;29;20125;-50
2021/08/09 01:51:23;;;;;;;2.45;1.52;;;;;;;;;;4859378;29;20046;-49
2021/08/09 01:53:50;;;;;;;4.55;1.58;;;;;;;;;;4858039;29;20145;-49
2021/08/09 01:56:17;;;;;;;2.22;1.48;;;;;;;;;;4856505;29;20339;-49
2021/08/09 01:58:45;;;;;;;2.35;1.50;;;;;;;;;;4857735;29;20076;-50
2021/08/09 02:01:12;;;;;;;2.85;1.75;;;;;;;;;;4858100;29;20049;-50
2021/08/09 02:03:39;;;;;;;3.88;1.75;;;;;;;;;;4858116;29;20129;-47
2021/08/09 02:06:07;;;;;;;3.90;1.55;;;;;;;;;;4857015;29;20041;-48
2021/08/09 02:08:35;;;;;;;3.83;1.67;;;;;;;;;;4842592;29;20050;-49
2021/08/09 02:11:16;;;;;;;4.47;1.98;;;;;;;;;;4857868;29;20419;-49
2021/08/09 02:13:45;;;;;;;2.75;1.67;;;;;;;;;;4859247;29;20480;-49
2021/08/09 02:16:14;;;;;;;2.80;1.77;;;;;;;;;;4856729;29;20312;-48
2021/08/09 02:19:05;;;;;;;3.83;1.30;;;;;;;;;;4857812;29;20053;-50
2021/08/09 02:21:40;;;;;;;2.83;1.65;;;;;;;;;;4857726;29;20046;-49
2021/08/09 02:24:08;;;;;;;3.05;1.65;;;;;;;;;;4857945;29;20049;-48
2021/08/09 02:26:45;;;;;;;2.78;1.33;;;;;;;;;;4857786;29;20048;-48
2021/08/09 02:29:14;;;;;;;3.00;1.75;;;;;;;;;;4857814;29;20492;-48
2021/08/09 02:31:42;;;;;;;2.78;1.60;;;;;;;;;;4858806;29;20060;-47
2021/08/09 02:34:09;;;;;;;2.30;1.40;;;;;;;;;;4856686;29;20464;-46
2021/08/09 02:36:37;;;;;;;3.72;1.42;;;;;;;;;;4857839;29;20161;-51
2021/08/09 02:39:04;;;;;;;4.97;1.40;;;;;;;;;;4857844;29;20053;-46
2021/08/09 02:41:34;;;;;;;2.80;1.20;;;;;;;;;;4857978;29;20431;-48
2021/08/09 02:44:01;;;;;;;2.58;1.27;;;;;;;;;;4856973;29;20132;-47
2021/08/09 02:46:28;;;;;;;2.42;1.25;;;;;;;;;;4860530;29;20033;-51
2021/08/09 02:48:55;;;;;;;4.25;1.50;;;;;;;;;;4858889;29;20045;-49
2021/08/09 02:51:22;;;;;;;1.75;1.30;;;;;;;;;;4857655;29;20052;-49
2021/08/09 02:53:49;;;;;;;2.17;1.35;;;;;;;;;;4873060;29;20484;-48
2021/08/09 02:56:18;;;;;;;3.58;1.25;;;;;;;;;;4856669;29;20321;-48
2021/08/09 02:58:44;;;;;;;5.15;1.50;;;;;;;;;;4859012;29;20046;-53
2021/08/09 03:01:14;;;;;;;2.40;1.50;;;;;;;;;;4857836;29;20049;-50
2021/08/09 03:03:42;;;;;;;5.55;1.55;;;;;;;;;;4858574;29;20101;-48
2021/08/09 03:06:09;;;;;;;3.55;1.58;;;;;;;;;;4856845;29;20046;-50
2021/08/09 03:08:37;;;;;;;2.65;1.23;;;;;;;;;;4860534;29;20487;-49
2021/08/09 03:11:03;;;;;;;4.13;1.80;;;;;;;;;;4861237;29;20412;-48
2021/08/09 03:13:30;;;;;;;4.20;1.60;;;;;;;;;;4875729;29;20185;-46
2021/08/09 03:15:57;;;;;;;3.70;1.27;;;;;;;;;;4861245;29;20109;-49
2021/08/09 03:18:32;;;;;;;2.38;1.40;;;;;;;;;;4860984;29;20052;-47
2021/08/09 03:21:06;;;;;;;2.45;1.33;;;;;;;;;;4861368;29;20111;-48
2021/08/09 03:23:33;;;;;;;2.50;1.30;;;;;;;;;;4860982;29;20168;-46
2021/08/09 03:26:00;;;;;;;3.83;1.63;;;;;;;;;;4902287;23;20053;-42
2021/08/09 03:28:27;;;;;;;2.25;1.40;;;;;;;;;;4898408;29;20116;-45
2021/08/09 03:30:54;;;;;;;3.42;1.58;;;;;;;;;;4898345;29;20119;-43
2021/08/09 03:33:22;;;;;;;3.00;1.33;;;;;;;;;;4892760;29;20041;-42
2021/08/09 03:35:49;;;;;;;3.50;1.33;;;;;;;;;;4879965;29;20047;-46
2021/08/09 03:38:15;;;;;;;2.40;1.67;;;;;;;;;;4879457;29;20399;-43
2021/08/09 03:40:43;;;;;;;3.85;1.48;;;;;;;;;;4879719;29;20474;-45
2021/08/09 03:43:10;;;;;;;4.43;1.70;;;;;;;;;;4880670;29;20065;-44
2021/08/09 03:45:37;;;;;;;4.55;1.45;;;;;;;;;;4878605;29;20079;-45
2021/08/09 03:48:06;;;;;;;2.25;1.42;;;;;;;;;;4898561;29;20045;-43
2021/08/09 03:50:33;;;;;;;4.05;1.75;;;;;;;;;;4897733;29;20100;-48
2021/08/09 03:53:00;;;;;;;5.10;1.40;;;;;;;;;;4897891;29;20119;-43
2021/08/09 03:55:27;;;;;;;1.88;1.40;;;;;;;;;;4894385;29;20056;-44
2021/08/09 03:57:54;;;;;;;3.53;1.50;;;;;;;;;;4879098;29;20053;-45
2021/08/09 04:00:20;;;;;;;3.20;1.50;;;;;;;;;;4879127;29;20049;-47
2021/08/09 04:02:50;;;;;;;1.45;1.30;;;;;;;;;;4878919;29;20052;-45
2021/08/09 04:05:30;;;;;;;2.88;1.30;;;;;;;;;;4875566;29;20056;-45
2021/08/09 04:07:58;;;;;;;2.85;1.48;;;;;;;;;;4878658;29;20041;-44
2021/08/09 04:10:25;;;;;;;4.65;1.88;;;;;;;;;;4878964;29;20120;-45
2021/08/09 04:12:52;;;;;;;2.33;1.52;;;;;;;;;;4885900;29;20093;-46
2021/08/09 04:15:19;;;;;;;4.55;1.65;;;;;;;;;;4878036;29;20529;-45
2021/08/09 04:17:46;;;;;;;2.83;1.30;;;;;;;;;;4863661;29;20144;-45
2021/08/09 04:20:13;;;;;;;4.95;1.83;;;;;;;;;;4877688;29;20570;-45
2021/08/09 04:22:40;;;;;;;5.43;1.67;;;;;;;;;;4878599;29;20073;-45
2021/08/09 04:25:07;;;;;;;5.65;1.45;;;;;;;;;;4877747;29;20041;-47
2021/08/09 04:27:34;;;;;;;2.30;1.40;;;;;;;;;;4896406;29;20127;-45
2021/08/09 04:30:01;;;;;;;2.55;1.38;;;;;;;;;;4898387;29;20434;-46
2021/08/09 04:32:39;;;;;;;4.45;1.90;;;;;;;;;;4897239;29;20459;-44
2021/08/09 04:35:07;;;;;;;3.72;1.70;;;;;;;;;;4892127;29;20041;-46
2021/08/09 04:37:34;;;;;;;3.42;1.85;;;;;;;;;;4879580;29;20654;-44
2021/08/09 04:40:01;;;;;;;3.67;1.63;;;;;;;;;;4878438;29;20495;-46
2021/08/09 04:42:29;;;;;;;7.13;1.90;;;;;;;;;;4879236;29;20045;-47
2021/08/09 04:44:56;;;;;;;3.30;1.67;;;;;;;;;;4877404;29;20096;-47
2021/08/09 04:47:24;;;;;;;3.30;1.50;;;;;;;;;;4888160;29;20140;-44
2021/08/09 04:49:51;;;;;;;3.83;1.95;;;;;;;;;;4893830;29;20499;-46
2021/08/09 04:52:17;;;;;;;5.88;1.98;;;;;;;;;;4879339;29;20128;-49
2021/08/09 04:54:44;;;;;;;4.80;2.10;;;;;;;;;;4877392;29;20123;-45
2021/08/09 04:57:11;;;;;;;7.80;2.20;;;;;;;;;;4878011;29;20438;-45
2021/08/09 04:59:38;;;;;;;3.97;2.10;;;;;;;;;;4879217;29;20523;-46
2021/08/09 05:02:05;;;;;;;3.53;1.90;;;;;;;;;;4878953;29;20472;-46
2021/08/09 05:04:32;;;;;;;6.10;2.00;;;;;;;;;;4877183;29;20525;-45
2021/08/09 05:07:01;;;;;;;7.28;2.05;;;;;;;;;;4893298;29;20132;-46
2021/08/09 05:09:28;;;;;;;4.50;2.00;;;;;;;;;;4877823;29;20488;-46
2021/08/09 05:11:55;;;;;;;4.13;2.17;;;;;;;;;;4877743;29;20555;-46
2021/08/09 05:14:23;;;;;;;3.97;1.70;;;;;;;;;;4891551;29;20045;-44
2021/08/09 05:16:51;;;;;;;5.07;1.73;;;;;;;;;;4877402;29;20438;-47
2021/08/09 05:19:18;;;;;;;3.83;1.98;;;;;;;;;;4878968;29;20132;-46
2021/08/09 05:21:45;;;;;;;7.35;3.00;;;;;;;;;;4878840;29;20045;-45
2021/08/09 05:24:12;;;;;;;4.75;2.58;;;;;;;;;;4878050;29;20097;-46
2021/08/09 05:26:39;;;;;;;5.20;2.33;;;;;;;;;;4878641;29;20048;-45
2021/08/09 05:29:05;;;;;;;3.45;2.17;;;;;;;;;;4878445;29;20410;-46
2021/08/09 05:31:33;;;;;;;3.28;1.98;;;;;;;;;;4877139;29;20136;-46
2021/08/09 05:34:00;;;;;;;4.50;2.20;;;;;;;;;;4877978;29;20045;-44
2021/08/09 05:36:28;;;;;;;3.50;1.98;;;;;;;;;;4878659;29;20047;-45
2021/08/09 05:38:55;;;;;;;4.35;2.00;;;;;;;;;;4878688;29;20073;-45
2021/08/09 05:41:22;;;;;;;3.63;2.30;;;;;;;;;;4878422;29;20048;-49
2021/08/09 05:43:53;;;;;;;5.20;2.20;;;;;;;;;;4877185;29;20084;-46
2021/08/09 05:46:20;;;;;;;3.42;2.00;;;;;;;;;;4876232;29;20041;-45
2021/08/09 05:48:48;;;;;;;4.70;2.10;;;;;;;;;;4877373;29;20499;-46
2021/08/09 05:51:14;;;;;;;4.82;1.98;;;;;;;;;;4877184;29;20075;-46
2021/08/09 05:53:42;;;;;;;6.32;1.95;;;;;;;;;;4877389;29;20079;-45
2021/08/09 05:56:09;;;;;;;3.88;1.77;;;;;;;;;;4876232;29;20051;-49
2021/08/09 05:58:46;;;;;;;5.40;2.00;;;;;;;;;;4877116;29;20108;-46
2021/08/09 06:01:13;;;;;;;4.15;1.95;;;;;;;;;;4876996;29;20041;-47
2021/08/09 06:03:41;;;;;;;4.57;1.95;;;;;;;;;;4876858;29;20588;-45
2021/08/09 06:06:16;;;;;;;4.82;2.08;;;;;;;;;;4876225;29;20048;-44
2021/08/09 06:08:43;;;;;;;6.32;2.10;;;;;;;;;;4876746;29;20041;-46
2021/08/09 06:11:11;;;;;;;9.15;3.20;;;;;;;;;;4877220;29;20131;-45
2021/08/09 06:13:39;;;;;;;6.13;2.30;;;;;;;;;;4876816;29;20124;-47
2021/08/09 06:16:07;;;;;;;4.35;2.20;;;;;;;;;;4876066;29;20085;-46
2021/08/09 06:18:34;;;;;;;7.18;2.38;;;;;;;;;;4876682;29;20071;-47
2021/08/09 06:21:03;;;;;;;4.65;2.28;;;;;;;;;;4876677;29;20045;-46
2021/08/09 06:23:31;;;;;;;7.80;2.15;;;;;;;;;;4876811;29;20069;-46
2021/08/09 06:25:58;;;;;;;5.13;2.10;;;;;;;;;;4875561;29;20081;-46
2021/08/09 06:28:28;;;;;;;5.32;1.60;;;;;;;;;;4876591;29;20485;-46
2021/08/09 06:30:57;;;;;;;4.47;1.95;;;;;;;;;;4876684;29;20041;-49
2021/08/09 06:33:24;;;;;;;5.75;2.17;;;;;;;;;;4876602;29;20491;-48
2021/08/09 06:35:51;;;;;;;2.95;1.70;;;;;;;;;;4868112;29;20103;-44
2021/08/09 06:38:19;;;;;;;4.47;1.73;;;;;;;;;;4876631;29;20104;-49
2021/08/09 06:40:46;;;;;;;3.33;1.45;;;;;;;;;;4876727;29;20049;-46
2021/08/09 06:43:13;;;;;;;5.65;2.10;;;;;;;;;;4877727;29;20053;-46
2021/08/09 06:45:49;;;;;;;3.60;1.50;;;;;;;;;;4879416;29;20049;-45
2021/08/09 06:48:18;;;;;;;3.00;1.50;;;;;;;;;;4880248;29;20044;-44
2021/08/09 06:50:45;;;;;;;3.92;1.80;;;;;;;;;;4880299;29;20518;-45
2021/08/09 06:53:12;;;;;;;2.78;1.42;;;;;;;;;;4880314;29;20048;-47
2021/08/09 06:55:44;;;;;;;3.30;1.50;;;;;;;;;;4879803;29;20053;-48
2021/08/09 06:58:12;;;;;;;5.07;1.73;;;;;;;;;;4880302;29;20203;-45
2021/08/09 07:00:39;;;;;;;3.10;1.40;;;;;;;;;;4880155;29;20041;-46
2021/08/09 07:03:09;;;;;;;4.60;1.63;;;;;;;;;;4880417;29;20132;-45
2021/08/09 07:05:43;;;;;;;2.47;1.50;;;;;;;;;;4879185;29;20041;-47
2021/08/09 07:08:15;;;;;;;3.83;1.60;;;;;;;;;;4880066;29;20053;-49
2021/08/09 07:10:44;;;;;;;4.90;1.77;;;;;;;;;;4883494;29;20044;-46
2021/08/09 07:13:11;;;;;;;4.25;1.58;;;;;;;;;;4879974;29;20093;-46
2021/08/09 07:15:38;;;;;;;5.53;1.73;;;;;;;;;;4878837;29;20041;-46
2021/08/09 07:18:05;;;;;;;4.13;1.80;;;;;;;;;;4881366;29;20068;-46
2021/08/09 07:20:32;;;;;;;3.33;1.50;;;;;;;;;;4880891;29;20056;-46
2021/08/09 07:22:59;;;;;;;3.30;1.60;;;;;;;;;;4895347;29;20049;-46
2021/08/09 07:25:26;;;;;;;5.80;2.60;;;;;;;;;;4893373;29;20132;-46
2021/08/09 07:27:53;;;;;;;4.82;1.92;;;;;;;;;;4863915;29;20060;-46
2021/08/09 07:30:20;;;;;;;6.65;1.70;;;;;;;;;;4879708;29;20045;-50
2021/08/09 07:32:51;;;;;;;3.10;1.73;;;;;;;;;;4880085;29;20132;-49
2021/08/09 07:35:17;;;;;;;4.03;1.80;;;;;;;;;;4881939;29;20037;-49
2021/08/09 07:37:45;;;;;;;4.20;1.88;;;;;;;;;;4879565;29;20108;-46
2021/08/09 07:40:12;;;;;;;6.53;2.10;;;;;;;;;;4880568;29;20045;-45
2021/08/09 07:42:40;;;;;;;4.22;1.63;;;;;;;;;;4879429;29;20049;-46
2021/08/09 07:45:07;;;;;;;4.13;2.38;;;;;;;;;;4878878;29;20072;-47
2021/08/09 07:47:34;;;;;;;4.57;1.95;;;;;;;;;;4890757;29;20096;-49
2021/08/09 07:50:03;;;;;;;6.82;2.28;;;;;;;;;;4879218;29;20517;-47
2021/08/09 07:52:30;;;;;;;5.95;2.67;;;;;;;;;;4879066;29;20049;-47
2021/08/09 07:54:57;;;;;;;5.40;1.70;;;;;;;;;;4878029;29;20041;-47
2021/08/09 07:57:26;;;;;;;3.72;1.45;;;;;;;;;;4879076;29;20555;-48
2021/08/09 07:59:53;;;;;;;2.70;1.70;;;;;;;;;;4879106;29;20055;-49
2021/08/09 08:02:22;;;;;;;3.92;1.70;;;;;;;;;;4879284;29;20236;-46
2021/08/09 08:04:49;;;;;;;3.92;1.88;;;;;;;;;;4879687;29;20433;-46
2021/08/09 08:07:17;;;;;;;4.10;2.05;;;;;;;;;;4878832;29;20053;-47
2021/08/09 08:09:45;;;;;;;3.60;1.52;;;;;;;;;;4879013;29;20064;-46
2021/08/09 08:12:11;;;;;;;9.80;1.92;;;;;;;;;;4879778;29;20055;-47
2021/08/09 08:14:40;;;;;;;5.00;1.70;;;;;;;;;;4878085;29;20053;-46
2021/08/09 08:17:07;;;;;;;3.85;1.63;;;;;;;;;;4878620;29;20048;-49
2021/08/09 08:19:34;;;;;;;3.35;1.52;;;;;;;;;;4880006;29;20052;-46
2021/08/09 08:22:01;;;;;;;5.47;1.70;;;;;;;;;;4878734;29;20448;-47
2021/08/09 08:24:31;;;;;;;4.53;1.50;;;;;;;;;;4878565;29;20048;-47
2021/08/09 08:26:58;;;;;;;4.10;1.60;;;;;;;;;;4879852;29;20522;-46
2021/08/09 08:29:25;;;;;;;3.50;1.40;;;;;;;;;;4894054;29;20087;-49
2021/08/09 08:31:52;;;;;;;5.32;1.48;;;;;;;;;;4878479;29;20041;-46
2021/08/09 08:34:19;;;;;;;4.97;1.92;;;;;;;;;;4877770;29;20049;-46
2021/08/09 08:36:47;;;;;;;5.32;1.67;;;;;;;;;;4878399;29;20041;-48
2021/08/09 08:39:14;;;;;;;5.15;1.55;;;;;;;;;;4879562;29;20570;-50
2021/08/09 08:41:43;;;;;;;4.90;1.60;;;;;;;;;;4877187;29;20049;-49
2021/08/09 08:44:10;;;;;;;4.10;1.60;;;;;;;;;;4877803;29;20468;-47
2021/08/09 08:46:38;;;;;;;2.45;1.60;;;;;;;;;;4878076;29;20045;-47
2021/08/09 08:49:05;;;;;;;3.45;1.20;;;;;;;;;;4879371;29;20048;-46
2021/08/09 08:51:32;;;;;;;2.97;1.42;;;;;;;;;;4878378;29;20047;-49
2021/08/09 08:53:59;;;;;;;5.90;1.70;;;;;;;;;;4878697;29;20069;-46
2021/08/09 08:56:26;;;;;;;3.65;1.60;;;;;;;;;;4879081;29;20076;-49
2021/08/09 08:58:53;;;;;;;2.97;1.63;;;;;;;;;;4879361;29;20483;-46
2021/08/09 09:01:39;;;;;;;2.53;1.58;;;;;;;;;;4879294;29;20521;-49
2021/08/09 09:04:18;;;;;;;2.83;1.48;;;;;;;;;;4878529;29;20076;-46
2021/08/09 09:06:45;;;;;;;3.83;1.70;;;;;;;;;;4878520;29;20080;-46
2021/08/09 09:09:22;;;;;;;3.33;1.35;;;;;;;;;;4879108;29;20467;-46
2021/08/09 09:11:49;;;;;;;6.00;1.60;;;;;;;;;;4893253;29;20579;-50
2021/08/09 09:14:23;;;;;;;4.95;1.85;;;;;;;;;;4878451;29;20056;-46
2021/08/09 09:16:52;;;;;;;7.95;1.73;;;;;;;;;;4878533;29;20460;-46
2021/08/09 09:19:28;;;;;;;2.97;1.35;;;;;;;;;;4878948;29;20141;-47
2021/08/09 09:21:55;;;;;;;5.90;1.75;;;;;;;;;;4878898;29;20045;-47
2021/08/09 09:24:22;;;;;;;3.63;1.50;;;;;;;;;;4877986;29;20135;-48
2021/08/09 09:26:59;;;;;;;2.60;1.30;;;;;;;;;;4892456;29;20053;-50
2021/08/09 09:29:26;;;;;;;5.03;1.73;;;;;;;;;;4878679;29;20047;-48
2021/08/09 09:31:53;;;;;;;5.70;1.98;;;;;;;;;;4878781;29;20051;-46
2021/08/09 09:34:21;;;;;;;6.35;1.92;;;;;;;;;;4878405;29;20053;-45
2021/08/09 09:36:55;;;;;;;3.75;1.60;;;;;;;;;;4878752;29;20434;-47
2021/08/09 09:39:29;;;;;;;2.58;1.40;;;;;;;;;;4878838;29;20132;-46
2021/08/09 09:41:57;;;;;;;3.03;1.50;;;;;;;;;;4879159;29;20132;-46
2021/08/09 09:44:25;;;;;;;4.90;1.50;;;;;;;;;;4877800;29;20059;-46
2021/08/09 09:46:52;;;;;;;5.88;1.73;;;;;;;;;;4878218;29;20172;-48
2021/08/09 09:49:32;;;;;;;2.85;1.50;;;;;;;;;;4878352;29;20041;-47
2021/08/09 09:51:59;;;;;;;3.92;1.80;;;;;;;;;;4878656;29;20045;-48
2021/08/09 09:54:27;;;;;;;2.80;1.50;;;;;;;;;;4877659;29;20123;-46
2021/08/09 09:56:54;;;;;;;3.10;1.50;;;;;;;;;;4878166;29;20075;-48
2021/08/09 09:59:24;;;;;;;1.95;1.30;;;;;;;;;;4878296;29;20132;-48
2021/08/09 10:01:52;;;;;;;3.67;1.30;;;;;;;;;;4878206;29;20056;-46
2021/08/09 10:04:19;;;;;;;4.20;1.55;;;;;;;;;;4876072;29;20059;-46
2021/08/09 10:06:46;;;;;;;4.80;1.60;;;;;;;;;;4876936;29;20144;-47
2021/08/09 10:09:14;;;;;;;3.95;1.60;;;;;;;;;;4878185;29;20051;-49
2021/08/09 10:11:43;;;;;;;3.47;1.40;;;;;;;;;;4878227;29;20060;-47
2021/08/09 10:14:11;;;;;;;4.95;1.60;;;;;;;;;;4877555;29;20042;-48
2021/08/09 10:16:39;;;;;;;4.15;1.77;;;;;;;;;;4878107;29;20059;-46
2021/08/09 10:19:06;;;;;;;3.10;1.40;;;;;;;;;;4877662;29;20552;-45
2021/08/09 10:21:34;;;;;;;3.90;1.42;;;;;;;;;;4878228;29;20400;-45
2021/08/09 10:24:00;;;;;;;3.17;1.40;;;;;;;;;;4877542;29;20051;-45
2021/08/09 10:26:30;;;;;;;5.60;1.52;;;;;;;;;;4877577;29;20077;-44
2021/08/09 10:28:56;;;;;;;2.60;1.35;;;;;;;;;;4877872;29;20044;-45
2021/08/09 10:31:26;;;;;;;4.05;1.88;;;;;;;;;;4877917;29;20132;-47
2021/08/09 10:33:53;;;;;;;2.55;1.25;;;;;;;;;;4876660;29;20045;-46
2021/08/09 10:36:23;;;;;;;3.75;1.38;;;;;;;;;;4877393;29;20136;-44
2021/08/09 10:38:55;;;;;;;3.05;1.73;;;;;;;;;;4877271;29;20112;-45
2021/08/09 10:41:33;;;;;;;2.95;1.70;;;;;;;;;;4876806;29;20100;-46
2021/08/09 10:44:02;;;;;;;5.00;1.70;;;;;;;;;;4882039;29;20468;-47
2021/08/09 10:46:55;;;;;;;2.80;1.45;;;;;;;;;;4877406;29;20137;-46
2021/08/09 10:49:38;;;;;;;2.17;1.15;;;;;;;;;;4875177;29;20061;-46
2021/08/09 10:52:06;;;;;;;1.83;1.17;;;;;;;;;;4878187;29;20119;-46
2021/08/09 10:54:35;;;;;;;3.78;1.65;;;;;;;;;;4876996;29;20571;-45
2021/08/09 10:57:02;;;;;;;4.07;1.50;;;;;;;;;;4877780;29;20045;-44
2021/08/09 10:59:46;;;;;;;4.72;1.30;;;;;;;;;;4876505;29;20045;-48
2021/08/09 11:02:16;;;;;;;2.95;1.20;;;;;;;;;;4877795;29;20041;-49
2021/08/09 11:04:43;;;;;;;2.38;1.25;;;;;;;;;;4876572;29;20081;-48
2021/08/09 11:07:16;;;;;;;6.72;1.30;;;;;;;;;;4877581;29;20072;-46
2021/08/09 11:09:44;;;;;;;2.50;1.42;;;;;;;;;;4877682;29;20053;-45
2021/08/09 11:12:24;;;;;;;4.30;1.30;;;;;;;;;;4877459;29;20056;-47
2021/08/09 11:14:58;;;;;;;2.80;1.50;;;;;;;;;;4875852;29;20041;-46
2021/08/09 11:17:29;;;;;;;3.85;1.33;;;;;;;;;;4877445;29;20519;-47
2021/08/09 11:20:08;;;;;;;2.65;1.38;;;;;;;;;;4877649;29;20079;-49
2021/08/09 11:22:35;;;;;;;3.00;1.50;;;;;;;;;;4877900;29;20136;-45
2021/08/09 11:25:02;;;;;;;3.42;1.65;;;;;;;;;;4875395;29;20053;-46
2021/08/09 11:27:29;;;;;;;3.10;1.50;;;;;;;;;;4876031;29;20049;-47
2021/08/09 11:29:57;;;;;;;4.43;1.45;;;;;;;;;;4879486;29;20079;-46
2021/08/09 11:32:41;;;;;;;5.43;1.40;;;;;;;;;;4880725;29;20045;-47
2021/08/09 11:35:08;;;;;;;2.22;1.23;;;;;;;;;;4879801;29;20056;-47
2021/08/09 11:37:57;;;;;;;6.22;1.50;;;;;;;;;;4881180;29;20033;-50
2021/08/09 11:41:00;;;;;;;3.28;1.45;;;;;;;;;;4880673;29;20045;-47
2021/08/09 11:43:30;;;;;;;2.45;1.17;;;;;;;;;;4851101;29;20065;-47
2021/08/09 11:46:05;;;;;;;2.63;1.60;;;;;;;;;;4882138;29;20425;-47
2021/08/09 11:48:34;;;;;;;5.00;1.38;;;;;;;;;;4880624;29;20415;-47
2021/08/09 11:51:02;;;;;;;7.82;1.60;;;;;;;;;;4880508;29;20410;-47
2021/08/09 11:53:47;;;;;;;2.45;1.30;;;;;;;;;;4880348;29;20101;-46
2021/08/09 11:56:17;;;;;;;2.65;1.20;;;;;;;;;;4879470;29;20049;-48
2021/08/09 11:58:44;;;;;;;7.03;2.10;;;;;;;;;;4880240;29;20083;-47
2021/08/09 12:01:18;;;;;;;6.00;2.13;;;;;;;;;;4880310;29;20134;-47
2021/08/09 12:04:06;;;;;;;3.75;1.77;;;;;;;;;;4880604;29;20060;-49
2021/08/09 12:06:33;;;;;;;2.97;1.17;;;;;;;;;;4880291;29;20156;-48
2021/08/09 12:09:00;;;;;;;4.13;1.50;;;;;;;;;;4880035;29;20128;-46
2021/08/09 12:11:29;;;;;;;2.92;1.20;;;;;;;;;;4879845;29;20041;-46
2021/08/09 12:14:02;;;;;;;8.75;4.05;;;;;;;;;;4880531;29;20041;-46
2021/08/09 12:16:29;;;;;;;4.97;2.08;;;;;;;;;;4887555;29;20127;-46
2021/08/09 12:18:55;;;;;;;5.28;1.75;;;;;;;;;;4885157;29;20053;-47
2021/08/09 12:21:32;;;;;;;2.53;1.40;;;;;;;;;;4892719;29;20083;-47
2021/08/09 12:23:59;;;;;;;2.28;1.30;;;;;;;;;;4882824;29;20079;-50
2021/08/09 12:26:34;;;;;;;2.75;1.20;;;;;;;;;;4888665;29;20049;-48
2021/08/09 12:29:02;;;;;;;6.10;1.60;;;;;;;;;;4898838;29;20059;-47
2021/08/09 12:31:32;;;;;;;2.63;1.30;;;;;;;;;;4889030;29;20136;-48
2021/08/09 12:33:59;;;;;;;2.08;1.20;;;;;;;;;;4878423;29;20413;-45
2021/08/09 12:36:29;;;;;;;3.38;1.20;;;;;;;;;;4879936;29;20045;-45
2021/08/09 12:38:56;;;;;;;2.80;1.10;;;;;;;;;;4879744;29;20063;-48
2021/08/09 12:41:28;;;;;;;3.17;1.10;;;;;;;;;;4878954;29;20045;-45
2021/08/09 12:43:55;;;;;;;4.68;1.40;;;;;;;;;;4878290;29;20521;-46
2021/08/09 12:46:22;;;;;;;2.40;1.00;;;;;;;;;;4881134;29;20045;-46
2021/08/09 12:48:49;;;;;;;2.55;1.27;;;;;;;;;;4892012;29;20418;-45
2021/08/09 12:51:16;;;;;;;2.75;1.25;;;;;;;;;;4889448;29;20554;-45
2021/08/09 12:53:43;;;;;;;2.22;1.20;;;;;;;;;;4893412;29;20128;-46
2021/08/09 12:56:10;;;;;;;2.63;1.50;;;;;;;;;;4887034;29;20073;-45
2021/08/09 12:58:37;;;;;;;1.85;1.27;;;;;;;;;;4880300;29;20049;-45
2021/08/09 13:01:05;;;;;;;3.45;1.40;;;;;;;;;;4884580;29;20052;-45
2021/08/09 13:03:32;;;;;;;2.97;1.20;;;;;;;;;;4886993;29;20048;-44
2021/08/09 13:06:02;;;;;;;3.42;1.40;;;;;;;;;;4885939;29;20049;-45
2021/08/09 13:08:30;;;;;;;3.80;1.55;;;;;;;;;;4885761;29;20040;-45
2021/08/09 13:10:59;;;;;;;3.90;1.77;;;;;;;;;;4883949;29;20045;-47
2021/08/09 13:13:27;;;;;;;3.50;1.60;;;;;;;;;;4887784;29;20045;-49
2021/08/09 13:15:54;;;;;;;2.70;1.10;;;;;;;;;;4889135;29;20476;-46
2021/08/09 13:18:25;;;;;;;1.83;1.13;;;;;;;;;;4889357;29;20506;-49
2021/08/09 13:20:52;;;;;;;4.45;1.60;;;;;;;;;;4889422;29;20045;-47
2021/08/09 13:23:19;;;;;;;3.25;1.17;;;;;;;;;;4882582;29;20040;-45
2021/08/09 13:25:46;;;;;;;4.72;1.33;;;;;;;;;;4888635;29;20045;-45
2021/08/09 13:28:14;;;;;;;4.18;1.20;;;;;;;;;;4892304;29;20407;-45
2021/08/09 13:30:41;;;;;;;3.50;1.30;;;;;;;;;;4892820;29;20051;-46
2021/08/09 13:33:09;;;;;;;2.97;1.20;;;;;;;;;;4896185;29;20128;-46
2021/08/09 13:35:36;;;;;;;2.08;1.23;;;;;;;;;;4889964;29;20044;-46
2021/08/09 13:38:03;;;;;;;2.83;1.63;;;;;;;;;;4880158;29;20077;-46
2021/08/09 13:40:30;;;;;;;5.30;1.40;;;;;;;;;;4896641;29;20140;-45
2021/08/09 13:43:02;;;;;;;1.48;1.05;;;;;;;;;;4895667;29;20809;-46
2021/08/09 13:45:29;;;;;;;3.47;1.25;;;;;;;;;;4895435;29;20048;-47
2021/08/09 13:48:00;;;;;;;5.38;1.48;;;;;;;;;;4879848;29;20101;-46
2021/08/09 13:50:27;;;;;;;3.92;1.70;;;;;;;;;;4896972;29;20040;-46
2021/08/09 13:52:54;;;;;;;5.03;1.40;;;;;;;;;;4881292;29;20135;-47
2021/08/09 13:55:21;;;;;;;1.45;1.00;;;;;;;;;;4887236;29;20081;-47
2021/08/09 13:57:48;;;;;;;5.88;1.45;;;;;;;;;;4878231;29;20052;-46
2021/08/09 14:00:16;;;;;;;4.85;1.40;;;;;;;;;;4896523;29;20057;-46
2021/08/09 14:02:43;;;;;;;1.77;1.27;;;;;;;;;;4890242;29;20128;-46
2021/08/09 14:05:10;;;;;;;2.10;1.17;;;;;;;;;;4885383;29;20052;-46
2021/08/09 14:07:43;;;;;;;2.30;1.20;;;;;;;;;;4891258;29;20166;-46
2021/08/09 14:10:11;;;;;;;2.50;1.13;;;;;;;;;;4895499;29;20479;-47
2021/08/09 14:12:39;;;;;;;2.38;1.40;;;;;;;;;;4896225;29;20420;-45
2021/08/09 14:15:07;;;;;;;2.50;1.30;;;;;;;;;;4887505;29;20036;-45
2021/08/09 14:17:37;;;;;;;3.25;1.38;;;;;;;;;;4887976;29;20510;-45
2021/08/09 14:20:05;;;;;;;2.40;1.35;;;;;;;;;;4893607;29;20051;-47
2021/08/09 14:22:37;;;;;;;2.78;1.30;;;;;;;;;;4877098;29;20484;-45
2021/08/09 14:25:06;;;;;;;3.72;1.58;;;;;;;;;;4886656;29;20053;-48
2021/08/09 14:27:33;;;;;;;3.33;1.50;;;;;;;;;;4882353;29;20048;-45
2021/08/09 14:30:00;;;;;;;3.50;1.45;;;;;;;;;;4893773;29;20056;-48
2021/08/09 14:32:27;;;;;;;2.97;1.42;;;;;;;;;;4890047;29;20037;-46
2021/08/09 14:34:54;;;;;;;5.93;1.85;;;;;;;;;;4877038;29;20396;-46
2021/08/09 14:37:33;;;;;;;6.00;1.60;;;;;;;;;;4879935;29;20056;-45
2021/08/09 14:40:00;;;;;;;3.40;1.40;;;;;;;;;;4878084;29;20045;-45
2021/08/09 14:42:28;;;;;;;2.90;1.50;;;;;;;;;;4889210;29;20053;-45
2021/08/09 14:44:55;;;;;;;3.45;1.65;;;;;;;;;;4893999;29;20051;-45
2021/08/09 14:47:22;;;;;;;3.72;1.40;;;;;;;;;;4889850;29;20418;-46
2021/08/09 14:49:50;;;;;;;4.72;1.50;;;;;;;;;;4892061;29;20043;-46
2021/08/09 14:52:17;;;;;;;3.53;1.55;;;;;;;;;;4884245;29;20037;-45
2021/08/09 14:54:45;;;;;;;3.53;1.48;;;;;;;;;;4867080;29;20100;-45